createdAt,value
2022-08-29T00:02:12.935Z,11.22
2022-08-29T00:04:41.840Z,10.75
2022-08-29T00:07:12.004Z,11.88
2022-08-29T00:09:40.652Z,11.20
2022-08-29T00:12:09.668Z,10.63
2022-08-29T00:14:38.770Z,10.78
2022-08-29T00:17:07.384Z,11.38
2022-08-29T00:19:36.207Z,11.55
2022-08-29T00:22:05.358Z,12.05
2022-08-29T00:24:37.126Z,11.95
2022-08-29T00:27:06.244Z,13.20
2022-08-29T00:29:35.651Z,11.80
2022-08-29T00:32:05.499Z,11.80
2022-08-29T00:34:34.316Z,12.70
2022-08-29T00:37:03.038Z,13.80
2022-08-29T00:39:32.882Z,12.28
2022-08-29T00:42:01.751Z,12.43
2022-08-29T00:44:32.068Z,11.30
2022-08-29T00:47:07.945Z,12.05
2022-08-29T00:49:41.245Z,12.10
2022-08-29T00:52:23.251Z,11.50
2022-08-29T00:55:02.590Z,11.97
2022-08-29T00:57:33.790Z,11.33
2022-08-29T01:00:09.720Z,11.65
2022-08-29T01:02:40.932Z,12.25
2022-08-29T01:05:20.090Z,11.97
2022-08-29T01:07:54.954Z,12.37
2022-08-29T01:10:44.618Z,12.33
2022-08-29T01:13:16.077Z,12.78
2022-08-29T01:15:48.239Z,12.55
2022-08-29T01:18:19.201Z,12.35
2022-08-29T01:21:02.545Z,12.73
2022-08-29T01:23:59.661Z,12.50
2022-08-29T01:26:32.341Z,12.15
2022-08-29T01:29:01.570Z,12.43
2022-08-29T01:31:55.738Z,11.57
2022-08-29T01:34:06.908Z,13.20
2022-08-29T01:36:56.679Z,12.20
2022-08-29T01:39:28.548Z,11.75
2022-08-29T01:41:58.866Z,12.55
2022-08-29T01:44:27.656Z,12.60
2022-08-29T01:47:02.704Z,12.88
2022-08-29T01:49:31.283Z,12.90
2022-08-29T01:52:00.133Z,12.93
2022-08-29T01:54:31.944Z,12.65
2022-08-29T01:57:01.623Z,12.95
2022-08-29T01:59:35.148Z,13.95
2022-08-29T02:02:17.248Z,12.50
2022-08-29T02:04:48.430Z,14.05
2022-08-29T02:07:20.139Z,13.83
2022-08-29T02:09:49.624Z,13.55
2022-08-29T02:12:18.934Z,13.60
2022-08-29T02:14:47.642Z,13.58
2022-08-29T02:17:17.999Z,13.25
2022-08-29T02:19:48.226Z,12.90
2022-08-29T02:22:16.927Z,13.10
2022-08-29T02:24:45.987Z,12.98
2022-08-29T02:27:14.620Z,12.70
2022-08-29T02:29:44.196Z,12.98
2022-08-29T02:32:15.285Z,14.28
2022-08-29T02:34:47.889Z,13.98
2022-08-29T02:37:15.645Z,13.78
2022-08-29T02:39:44.449Z,13.75
2022-08-29T02:42:13.277Z,12.88
2022-08-29T02:44:41.919Z,13.18
2022-08-29T02:47:10.574Z,12.60
2022-08-29T02:49:39.754Z,13.72
2022-08-29T02:52:11.328Z,13.75
2022-08-29T02:54:40.358Z,13.83
2022-08-29T02:57:09.054Z,14.03
2022-08-29T02:59:37.688Z,13.58
2022-08-29T03:02:07.699Z,14.05
2022-08-29T03:04:36.822Z,13.80
2022-08-29T03:07:05.615Z,14.68
2022-08-29T03:09:34.279Z,14.07
2022-08-29T03:12:03.055Z,14.33
2022-08-29T03:14:31.741Z,14.10
2022-08-29T03:17:00.450Z,13.72
2022-08-29T03:19:29.165Z,14.20
2022-08-29T03:21:57.820Z,13.55
2022-08-29T03:24:27.186Z,14.50
2022-08-29T03:26:58.779Z,13.50
2022-08-29T03:29:27.719Z,14.20
2022-08-29T03:31:58.044Z,13.62
2022-08-29T03:34:28.350Z,13.68
2022-08-29T03:36:57.124Z,13.45
2022-08-29T03:39:25.892Z,12.50
2022-08-29T03:41:54.926Z,13.62
2022-08-29T03:44:24.428Z,12.90
2022-08-29T03:46:56.700Z,13.68
2022-08-29T03:49:25.413Z,13.53
2022-08-29T03:51:54.208Z,13.43
2022-08-29T03:54:23.009Z,13.65
2022-08-29T03:56:51.823Z,13.68
2022-08-29T03:59:21.184Z,13.25
2022-08-29T04:01:50.359Z,12.65
2022-08-29T04:04:41.270Z,13.40
2022-08-29T04:07:14.387Z,13.95
2022-08-29T04:09:43.519Z,13.30
2022-08-29T04:12:14.077Z,13.43
2022-08-29T04:14:42.973Z,13.85
2022-08-29T04:17:13.157Z,14.30
2022-08-29T04:19:41.935Z,12.70
2022-08-29T04:22:10.512Z,14.38
2022-08-29T04:24:39.162Z,14.20
2022-08-29T04:27:08.657Z,12.70
2022-08-29T04:29:38.298Z,13.22
2022-08-29T04:32:07.202Z,12.37
2022-08-29T04:34:35.908Z,13.22
2022-08-29T04:37:04.663Z,12.50
2022-08-29T04:39:33.370Z,13.20
2022-08-29T04:42:02.043Z,12.88
2022-08-29T04:44:30.733Z,14.43
2022-08-29T04:46:59.831Z,14.35
2022-08-29T04:49:28.629Z,13.00
2022-08-29T04:51:57.402Z,12.90
2022-08-29T04:54:26.112Z,13.48
2022-08-29T04:56:57.636Z,13.68
2022-08-29T04:59:25.833Z,13.32
2022-08-29T05:01:55.932Z,13.32
2022-08-29T05:04:25.401Z,13.53
2022-08-29T05:07:21.152Z,12.90
2022-08-29T05:09:59.838Z,12.73
2022-08-29T05:12:31.080Z,13.22
2022-08-29T05:15:00.453Z,12.65
2022-08-29T05:17:29.296Z,12.40
2022-08-29T05:19:57.954Z,12.65
2022-08-29T05:22:26.837Z,12.65
2022-08-29T05:24:57.159Z,13.48
2022-08-29T05:27:25.906Z,13.30
2022-08-29T05:29:55.061Z,13.50
2022-08-29T05:32:24.158Z,13.25
2022-08-29T05:34:52.876Z,13.10
2022-08-29T05:37:22.909Z,12.82
2022-08-29T05:39:55.877Z,16.87
2022-08-29T05:42:24.830Z,13.32
2022-08-29T05:44:55.090Z,12.95
2022-08-29T05:47:25.804Z,13.88
2022-08-29T05:49:55.819Z,14.93
2022-08-29T05:52:24.680Z,14.60
2022-08-29T05:54:53.497Z,13.05
2022-08-29T05:57:25.245Z,14.53
2022-08-29T05:59:55.162Z,14.23
2022-08-29T06:02:25.541Z,14.90
2022-08-29T06:04:54.595Z,12.95
2022-08-29T06:07:23.492Z,12.33
2022-08-29T06:09:54.961Z,13.03
2022-08-29T06:12:26.892Z,12.60
2022-08-29T06:14:55.768Z,12.43
2022-08-29T06:17:26.360Z,12.13
2022-08-29T06:19:55.410Z,12.07
2022-08-29T06:22:24.395Z,12.78
2022-08-29T06:24:58.459Z,14.05
2022-08-29T06:27:30.323Z,14.47
2022-08-29T06:30:02.285Z,13.98
2022-08-29T06:32:34.159Z,13.65
2022-08-29T06:35:08.068Z,13.05
2022-08-29T06:37:48.182Z,12.45
2022-08-29T06:40:18.192Z,15.10
2022-08-29T06:43:02.465Z,12.03
2022-08-29T06:45:31.791Z,12.95
2022-08-29T06:48:06.122Z,12.50
2022-08-29T06:50:44.886Z,11.00
2022-08-29T06:53:26.968Z,11.25
2022-08-29T06:55:45.693Z,11.43
2022-08-29T06:58:24.522Z,10.03
2022-08-29T07:03:47.130Z,10.53
2022-08-29T07:06:50.559Z,11.00
2022-08-29T07:12:16.626Z,11.28
2022-08-29T07:15:06.266Z,11.35
2022-08-29T07:17:50.425Z,10.18
2022-08-29T07:20:24.150Z,10.38
2022-08-29T07:22:53.758Z,9.43
2022-08-29T07:25:29.419Z,11.20
2022-08-29T07:28:45.657Z,9.70
2022-08-29T07:31:11.737Z,10.90
2022-08-29T07:33:40.925Z,11.78
2022-08-29T07:36:09.897Z,10.88
2022-08-29T07:38:48.078Z,10.25
2022-08-29T07:41:20.630Z,10.23
2022-08-29T07:43:52.809Z,9.88
2022-08-29T07:46:27.715Z,10.25
2022-08-29T07:49:03.333Z,12.90
2022-08-29T07:51:49.188Z,10.58
2022-08-29T07:54:21.342Z,11.33
2022-08-29T07:57:02.977Z,10.58
2022-08-29T07:59:58.974Z,9.25
2022-08-29T08:02:42.944Z,8.80
2022-08-29T08:05:30.024Z,9.68
2022-08-29T08:08:05.150Z,9.38
2022-08-29T08:13:27.014Z,9.23
2022-08-29T08:15:55.889Z,8.83
2022-08-29T08:18:31.953Z,9.45
2022-08-29T08:21:25.508Z,13.03
2022-08-29T08:23:54.889Z,9.40
2022-08-29T08:26:26.760Z,8.45
2022-08-29T08:29:00.047Z,8.95
2022-08-29T08:31:30.974Z,8.50
2022-08-29T08:33:59.866Z,8.85
2022-08-29T08:36:40.254Z,8.93
2022-08-29T08:39:06.111Z,9.00
2022-08-29T08:41:46.974Z,9.80
2022-08-29T08:44:20.615Z,8.20
2022-08-29T08:46:52.153Z,8.15
2022-08-29T08:49:48.239Z,8.63
2022-08-29T08:52:27.677Z,8.80
2022-08-29T08:55:02.259Z,8.28
2022-08-29T08:57:33.882Z,8.20
2022-08-29T09:00:04.246Z,8.60
2022-08-29T09:02:50.904Z,7.78
2022-08-29T09:05:31.582Z,8.60
2022-08-29T09:08:27.245Z,8.08
2022-08-29T09:11:04.824Z,7.10
2022-08-29T09:13:59.476Z,8.53
2022-08-29T09:16:50.773Z,7.90
2022-08-29T09:19:19.478Z,8.35
2022-08-29T09:21:56.282Z,8.68
2022-08-29T09:24:46.563Z,8.90
2022-08-29T09:27:33.930Z,8.58
2022-08-29T09:30:26.171Z,8.00
2022-08-29T09:33:03.481Z,8.50
2022-08-29T09:35:41.339Z,8.58
2022-08-29T09:38:29.242Z,8.30
2022-08-29T09:41:01.446Z,8.35
2022-08-29T09:43:41.970Z,7.72
2022-08-29T09:46:20.257Z,9.15
2022-08-29T09:48:52.325Z,9.18
2022-08-29T09:51:35.366Z,8.08
2022-08-29T09:57:23.742Z,9.08
2022-08-29T10:00:16.449Z,8.60
2022-08-29T10:02:49.015Z,8.63
2022-08-29T10:05:45.672Z,10.05
2022-08-29T10:08:33.775Z,8.55
2022-08-29T10:11:05.440Z,8.90
2022-08-29T10:13:57.843Z,8.38
2022-08-29T10:16:38.609Z,9.10
2022-08-29T10:19:13.297Z,9.40
2022-08-29T10:21:50.942Z,10.03
2022-08-29T10:24:51.284Z,9.45
2022-08-29T10:27:34.796Z,9.43
2022-08-29T10:30:15.164Z,9.05
2022-08-29T10:32:56.072Z,9.78
2022-08-29T10:35:43.565Z,9.60
2022-08-29T10:38:33.638Z,9.70
2022-08-29T10:41:13.424Z,9.38
2022-08-29T10:43:54.030Z,9.60
2022-08-29T10:46:47.609Z,9.35
2022-08-29T10:49:35.726Z,9.18
2022-08-29T10:52:31.644Z,9.78
2022-08-29T10:55:09.264Z,9.70
2022-08-29T10:57:41.099Z,8.93
2022-08-29T11:00:18.945Z,9.38
2022-08-29T11:03:07.030Z,9.25
2022-08-29T11:05:38.712Z,8.68
2022-08-29T11:08:14.066Z,9.25
2022-08-29T11:10:43.672Z,8.95
2022-08-29T11:13:15.343Z,9.15
2022-08-29T11:16:09.975Z,8.80
2022-08-29T11:18:47.549Z,8.60
2022-08-29T11:21:36.950Z,8.25
2022-08-29T11:24:06.493Z,8.63
2022-08-29T11:26:47.208Z,8.18
2022-08-29T11:29:44.366Z,8.05
2022-08-29T11:32:33.561Z,8.35
2022-08-29T11:35:05.959Z,8.55
2022-08-29T11:37:46.652Z,8.73
2022-08-29T11:43:30.601Z,7.90
2022-08-29T11:46:07.412Z,6.33
2022-08-29T11:48:49.323Z,6.80
2022-08-29T11:51:40.844Z,6.83
2022-08-29T11:54:28.758Z,5.95
2022-08-29T11:57:06.398Z,5.90
2022-08-29T11:59:50.091Z,5.97
2022-08-29T12:02:33.964Z,6.67
2022-08-29T12:05:07.733Z,6.55
2022-08-29T12:07:47.196Z,5.97
2022-08-29T12:10:24.784Z,6.70
2022-08-29T12:12:59.511Z,5.65
2022-08-29T12:15:37.075Z,6.85
2022-08-29T12:18:16.521Z,6.12
2022-08-29T12:20:48.197Z,6.17
2022-08-29T12:23:22.424Z,6.30
2022-08-29T12:26:21.086Z,5.95
2022-08-29T12:28:32.819Z,6.78
2022-08-29T12:31:08.884Z,6.55
2022-08-29T12:34:02.251Z,6.78
2022-08-29T12:36:52.294Z,6.42
2022-08-29T12:39:38.812Z,6.80
2022-08-29T12:42:29.945Z,6.45
2022-08-29T12:45:05.927Z,7.37
2022-08-29T12:47:54.207Z,7.42
2022-08-29T12:53:55.734Z,7.47
2022-08-29T12:56:32.685Z,7.08
2022-08-29T12:59:06.523Z,7.42
2022-08-29T13:01:41.791Z,7.10
2022-08-29T13:04:17.130Z,6.78
2022-08-29T13:07:07.319Z,6.78
2022-08-29T13:09:41.697Z,6.20
2022-08-29T13:12:16.182Z,5.45
2022-08-29T13:14:50.243Z,5.20
2022-08-29T13:17:25.023Z,5.83
2022-08-29T13:20:30.217Z,5.47
2022-08-29T13:23:35.303Z,5.20
2022-08-29T13:26:07.006Z,8.40
2022-08-29T13:28:53.786Z,5.72
2022-08-29T13:31:25.549Z,5.40
2022-08-29T13:33:57.179Z,6.83
2022-08-29T13:36:32.139Z,6.92
2022-08-29T13:39:28.086Z,6.17
2022-08-29T13:42:05.536Z,7.30
2022-08-29T13:44:40.085Z,5.35
2022-08-29T13:47:20.595Z,6.20
2022-08-29T13:49:50.333Z,5.33
2022-08-29T13:52:21.682Z,5.80
2022-08-29T13:54:52.007Z,5.58
2022-08-29T13:57:23.882Z,5.95
2022-08-29T13:59:53.093Z,6.40
2022-08-29T14:02:23.377Z,6.05
2022-08-29T14:04:52.346Z,5.97
2022-08-29T14:07:24.302Z,6.25
2022-08-29T14:09:53.601Z,7.00
2022-08-29T14:12:33.897Z,7.67
2022-08-29T14:14:53.236Z,7.30
2022-08-29T14:17:24.857Z,7.45
2022-08-29T14:19:54.712Z,8.45
2022-08-29T14:22:23.416Z,8.40
2022-08-29T14:24:58.656Z,8.30
2022-08-29T14:27:29.503Z,9.03
2022-08-29T14:29:58.176Z,8.38
2022-08-29T14:32:30.974Z,9.00
2022-08-29T14:35:00.427Z,9.20
2022-08-29T14:37:29.157Z,9.30
2022-08-29T14:39:58.168Z,8.53
2022-08-29T14:42:29.339Z,9.18
2022-08-29T14:44:59.983Z,9.65
2022-08-29T14:47:31.981Z,9.33
2022-08-29T14:50:01.064Z,9.45
2022-08-29T14:52:42.807Z,9.48
2022-08-29T14:55:16.153Z,9.75
2022-08-29T15:00:40.182Z,9.08
2022-08-29T15:03:20.655Z,8.88
2022-08-29T15:08:31.157Z,9.90
2022-08-29T15:11:11.308Z,8.55
2022-08-29T15:13:42.127Z,8.53
2022-08-29T15:16:15.417Z,8.15
2022-08-29T15:19:24.805Z,7.87
2022-08-29T15:21:16.532Z,7.90
2022-08-29T15:23:46.603Z,8.43
2022-08-29T15:26:15.912Z,8.75
2022-08-29T15:28:45.034Z,8.50
2022-08-29T15:31:14.899Z,8.78
2022-08-29T15:33:43.667Z,9.48
2022-08-29T15:36:12.287Z,9.55
2022-08-29T15:38:41.034Z,9.10
2022-08-29T15:41:09.602Z,10.68
2022-08-29T15:43:38.373Z,11.33
2022-08-29T15:46:08.088Z,10.28
2022-08-29T15:48:38.816Z,10.72
2022-08-29T15:51:09.494Z,11.90
2022-08-29T15:53:39.114Z,10.60
2022-08-29T15:56:16.183Z,9.80
2022-08-29T15:58:51.817Z,10.55
2022-08-29T16:04:34.761Z,11.22
2022-08-29T16:10:00.652Z,11.03
2022-08-29T16:12:46.595Z,12.43
2022-08-29T16:18:10.139Z,13.45
2022-08-29T16:20:41.741Z,12.33
2022-08-29T16:23:12.638Z,13.32
2022-08-29T16:25:44.202Z,15.03
2022-08-29T16:28:22.703Z,14.38
2022-08-29T16:30:54.426Z,14.28
2022-08-29T16:36:25.935Z,14.65
2022-08-29T16:42:03.752Z,15.60
2022-08-29T16:44:23.855Z,14.75
2022-08-29T16:47:10.910Z,14.75
2022-08-29T16:49:35.045Z,14.65
2022-08-29T16:52:11.023Z,13.65
2022-08-29T16:54:42.399Z,13.30
2022-08-29T16:57:11.440Z,13.25
2022-08-29T16:59:42.497Z,13.68
2022-08-29T17:02:19.155Z,14.38
2022-08-29T17:04:50.169Z,13.90
2022-08-29T17:07:20.055Z,12.63
2022-08-29T17:09:48.046Z,12.90
2022-08-29T17:12:16.277Z,13.32
2022-08-29T17:14:54.834Z,13.72
2022-08-29T17:17:23.354Z,12.80
2022-08-29T17:19:52.374Z,13.22
2022-08-29T17:25:19.163Z,13.93
2022-08-29T17:28:07.474Z,14.40
2022-08-29T17:30:19.051Z,13.22
2022-08-29T17:33:01.590Z,12.95
2022-08-29T17:35:31.354Z,13.48
2022-08-29T17:38:00.175Z,13.35
2022-08-29T17:40:29.349Z,13.50
2022-08-29T17:42:59.727Z,13.45
2022-08-29T17:45:28.629Z,14.40
2022-08-29T17:47:57.331Z,13.93
2022-08-29T17:50:26.801Z,14.07
2022-08-29T17:52:55.711Z,14.53
2022-08-29T17:55:30.069Z,13.80
2022-08-29T17:57:56.022Z,13.85
2022-08-29T18:00:25.617Z,14.03
2022-08-29T18:02:55.284Z,14.70
2022-08-29T18:05:27.723Z,14.23
2022-08-29T18:07:57.147Z,15.00
2022-08-29T18:10:26.268Z,15.80
2022-08-29T18:12:54.969Z,15.15
2022-08-29T18:15:23.730Z,14.75
2022-08-29T18:18:00.198Z,15.28
2022-08-29T18:20:34.996Z,15.40
2022-08-29T18:23:05.373Z,14.75
2022-08-29T18:25:34.112Z,14.45
2022-08-29T18:28:06.813Z,14.33
2022-08-29T18:30:42.783Z,16.55
2022-08-29T18:33:12.030Z,17.07
2022-08-29T18:35:46.713Z,17.73
2022-08-29T18:38:16.352Z,16.07
2022-08-29T18:41:09.356Z,16.55
2022-08-29T18:43:38.743Z,16.80
2022-08-29T18:52:10.613Z,16.90
2022-08-29T18:55:25.121Z,16.87
2022-08-29T19:00:40.983Z,14.43
2022-08-29T19:03:11.513Z,14.73
2022-08-29T19:05:50.087Z,14.00
2022-08-29T19:08:24.887Z,13.93
2022-08-29T19:10:55.793Z,14.47
2022-08-29T19:13:25.297Z,14.90
2022-08-29T19:16:10.870Z,13.95
2022-08-29T19:18:41.929Z,14.90
2022-08-29T19:21:10.812Z,14.03
2022-08-29T19:23:42.592Z,15.15
2022-08-29T19:26:23.362Z,14.20
2022-08-29T19:28:56.724Z,14.83
2022-08-29T19:31:26.677Z,15.35
2022-08-29T19:33:56.076Z,14.83
2022-08-29T19:36:25.911Z,14.80
2022-08-29T19:38:56.673Z,14.70
2022-08-29T19:41:28.470Z,14.40
2022-08-29T19:44:00.762Z,14.83
2022-08-29T19:46:30.621Z,15.05
2022-08-29T19:48:59.868Z,13.32
2022-08-29T19:51:30.583Z,13.40
2022-08-29T19:54:05.236Z,13.60
2022-08-29T19:56:34.148Z,13.50
2022-08-29T19:59:07.125Z,14.23
2022-08-29T20:01:35.961Z,12.78
2022-08-29T20:04:09.832Z,14.33
2022-08-29T20:06:39.977Z,13.98
2022-08-29T20:09:12.702Z,13.68
2022-08-29T20:11:43.718Z,13.40
2022-08-29T20:14:14.108Z,13.55
2022-08-29T20:16:45.745Z,12.85
2022-08-29T20:19:16.628Z,13.93
2022-08-29T20:21:45.860Z,13.93
2022-08-29T20:24:16.793Z,13.48
2022-08-29T20:26:48.990Z,13.83
2022-08-29T20:29:21.975Z,13.38
2022-08-29T20:31:56.869Z,13.38
2022-08-29T20:34:29.716Z,13.05
2022-08-29T20:37:17.374Z,30.15
2022-08-29T20:39:59.344Z,14.60
2022-08-29T20:42:31.121Z,13.15
2022-08-29T20:45:05.769Z,18.60
2022-08-29T20:47:40.672Z,14.13
2022-08-29T20:50:12.146Z,14.20
2022-08-29T20:55:59.237Z,14.28
2022-08-29T20:58:44.576Z,15.80
2022-08-29T21:01:16.965Z,15.80
2022-08-29T21:04:05.961Z,15.28
2022-08-29T21:06:37.689Z,16.35
2022-08-29T21:09:12.230Z,15.45
2022-08-29T21:11:42.510Z,16.30
2022-08-29T21:14:12.952Z,15.60
2022-08-29T21:16:44.341Z,15.20
2022-08-29T21:19:20.102Z,15.40
2022-08-29T21:21:51.500Z,14.60
2022-08-29T21:24:23.487Z,14.83
2022-08-29T21:26:52.573Z,14.20
2022-08-29T21:29:21.777Z,15.25
2022-08-29T21:31:57.392Z,15.23
2022-08-29T21:34:26.686Z,14.90
2022-08-29T21:37:11.816Z,15.10
2022-08-29T21:39:51.449Z,15.65
2022-08-29T21:42:24.196Z,14.95
2022-08-29T21:44:56.573Z,14.33
2022-08-29T21:47:49.653Z,13.40
2022-08-29T21:50:22.343Z,13.83
2022-08-29T21:53:00.721Z,13.38
2022-08-29T21:55:27.598Z,13.40
2022-08-29T21:58:02.349Z,13.25
2022-08-29T22:00:38.973Z,13.30
2022-08-29T22:03:15.871Z,13.30
2022-08-29T22:06:06.688Z,12.80
2022-08-29T22:08:47.589Z,12.13
2022-08-29T22:11:37.914Z,11.48
2022-08-29T22:14:13.758Z,13.08
2022-08-29T22:16:49.784Z,11.78
2022-08-29T22:19:44.834Z,11.30
2022-08-29T22:22:13.255Z,11.18
2022-08-29T22:24:49.738Z,10.98
2022-08-29T22:27:39.696Z,12.25
2022-08-29T22:30:22.187Z,10.82
2022-08-29T22:32:56.477Z,11.35
2022-08-29T22:35:37.078Z,11.70
2022-08-29T22:38:17.615Z,11.63
2022-08-29T22:40:56.144Z,10.95
2022-08-29T22:43:38.315Z,11.10
2022-08-29T22:46:23.975Z,10.93
2022-08-29T22:49:09.421Z,11.57
2022-08-29T22:51:54.477Z,11.05
2022-08-29T22:54:44.657Z,10.82
2022-08-29T22:57:19.952Z,11.38
2022-08-29T22:59:56.366Z,11.25
2022-08-29T23:02:38.379Z,11.03
2022-08-29T23:05:11.811Z,10.58
2022-08-29T23:07:47.521Z,11.25
2022-08-29T23:10:30.615Z,10.88
2022-08-29T23:13:08.126Z,10.72
2022-08-29T23:15:38.803Z,10.10
2022-08-29T23:18:15.881Z,10.53
2022-08-29T23:20:51.855Z,10.20
2022-08-29T23:23:33.062Z,10.38
2022-08-29T23:26:08.168Z,10.08
2022-08-29T23:28:50.485Z,10.68
2022-08-29T23:31:13.720Z,10.68
2022-08-29T23:33:49.981Z,10.53
2022-08-29T23:36:26.200Z,10.98
2022-08-29T23:39:01.065Z,10.72
2022-08-29T23:41:35.785Z,11.78
2022-08-29T23:44:15.229Z,11.90
2022-08-29T23:49:40.341Z,12.15
2022-08-29T23:52:18.212Z,11.00
2022-08-29T23:54:56.055Z,11.57
2022-08-29T23:57:46.949Z,12.40
